Time;durP1;ratioP1;P1;durP2;ratioP2;P2;SDS_P1;SDS_P2;PMS_P1;PMS_P2;Temp;Humidity;BMP_temperature;BMP_pressure;BME280_temperature;BME280_humidity;BME280_pressure;Samples;Min_cycle;Max_cycle;Signal;HPM_P1;HPM_P2
2023/03/04 00:02:25;;;;;;;12.05;1.73;;;;;;;;;;4998553;28;20050;-67
2023/03/04 00:04:52;;;;;;;23.50;2.20;;;;;;;;;;4997302;28;20046;-67
2023/03/04 00:07:19;;;;;;;18.05;2.25;;;;;;;;;;4975161;28;20050;-67
2023/03/04 00:09:50;;;;;;;14.80;1.80;;;;;;;;;;4996893;28;20042;-67
2023/03/04 00:12:17;;;;;;;16.83;2.20;;;;;;;;;;4982165;28;20050;-67
2023/03/04 00:14:44;;;;;;;17.85;1.65;;;;;;;;;;4997917;28;20349;-67
2023/03/04 00:17:12;;;;;;;22.17;1.75;;;;;;;;;;4994589;28;20049;-67
2023/03/04 00:19:40;;;;;;;19.20;2.42;;;;;;;;;;4996750;28;20058;-67
2023/03/04 00:22:07;;;;;;;18.83;1.95;;;;;;;;;;4992800;28;20050;-67
2023/03/04 00:24:35;;;;;;;24.85;2.75;;;;;;;;;;5000723;28;20569;-67
2023/03/04 00:27:02;;;;;;;16.92;1.67;;;;;;;;;;4990788;28;20094;-67
2023/03/04 00:29:29;;;;;;;15.75;1.88;;;;;;;;;;4976792;28;20420;-67
2023/03/04 00:31:57;;;;;;;16.15;1.95;;;;;;;;;;4989209;28;20062;-67
2023/03/04 00:34:24;;;;;;;21.45;2.17;;;;;;;;;;4992681;28;20060;-67
2023/03/04 00:36:53;;;;;;;18.80;1.90;;;;;;;;;;4975040;28;20053;-67
2023/03/04 00:39:20;;;;;;;13.93;1.60;;;;;;;;;;4987909;28;20527;-67
2023/03/04 00:41:48;;;;;;;12.27;2.00;;;;;;;;;;4991502;28;20101;-67
2023/03/04 00:44:15;;;;;;;14.02;1.27;;;;;;;;;;4992760;28;20091;-67
2023/03/04 00:46:42;;;;;;;11.13;1.92;;;;;;;;;;4993304;28;20046;-67
2023/03/04 00:49:09;;;;;;;17.33;1.75;;;;;;;;;;4977779;28;20057;-67
2023/03/04 00:51:37;;;;;;;14.90;1.60;;;;;;;;;;4988525;28;20054;-67
2023/03/04 00:54:05;;;;;;;12.88;1.70;;;;;;;;;;4991712;28;20129;-67
2023/03/04 00:56:33;;;;;;;15.95;2.15;;;;;;;;;;4987479;28;20126;-67
2023/03/04 00:59:00;;;;;;;17.70;2.10;;;;;;;;;;4994142;28;20042;-67
2023/03/04 01:01:27;;;;;;;15.38;2.22;;;;;;;;;;4993524;28;20522;-67
2023/03/04 01:03:54;;;;;;;15.30;2.17;;;;;;;;;;5000023;28;20057;-67
2023/03/04 01:06:22;;;;;;;14.88;1.90;;;;;;;;;;4998823;28;20041;-67
2023/03/04 01:08:49;;;;;;;15.02;1.65;;;;;;;;;;4996555;28;20137;-67
2023/03/04 01:11:18;;;;;;;13.20;1.40;;;;;;;;;;4996473;28;20046;-67
2023/03/04 01:13:45;;;;;;;18.27;1.50;;;;;;;;;;4995403;28;20064;-67
2023/03/04 01:16:12;;;;;;;17.75;2.05;;;;;;;;;;4990383;28;20046;-67
2023/03/04 01:18:39;;;;;;;17.10;2.42;;;;;;;;;;4994505;28;20073;-67
2023/03/04 01:21:07;;;;;;;16.35;2.05;;;;;;;;;;4988475;28;20405;-67
2023/03/04 01:23:34;;;;;;;13.90;1.83;;;;;;;;;;4989390;28;20048;-67
2023/03/04 01:26:01;;;;;;;19.55;1.52;;;;;;;;;;4987526;28;20054;-67
2023/03/04 01:28:34;;;;;;;12.88;1.50;;;;;;;;;;4989670;28;20057;-67
2023/03/04 01:31:01;;;;;;;17.13;1.90;;;;;;;;;;4988877;28;20043;-67
2023/03/04 01:33:29;;;;;;;16.65;2.17;;;;;;;;;;4993421;28;20449;-67
2023/03/04 01:35:57;;;;;;;21.30;1.90;;;;;;;;;;4976028;28;20065;-67
2023/03/04 01:38:24;;;;;;;19.65;1.88;;;;;;;;;;4987877;28;20051;-67
2023/03/04 01:40:51;;;;;;;18.20;1.90;;;;;;;;;;4994754;28;20061;-67
2023/03/04 01:43:21;;;;;;;17.75;1.73;;;;;;;;;;4991153;28;20058;-67
2023/03/04 01:45:51;;;;;;;20.65;1.80;;;;;;;;;;4993350;28;20054;-67
2023/03/04 01:48:20;;;;;;;15.02;1.85;;;;;;;;;;4989838;28;20073;-67
2023/03/04 01:50:48;;;;;;;16.27;2.30;;;;;;;;;;4986188;28;20053;-67
2023/03/04 01:53:18;;;;;;;21.02;1.90;;;;;;;;;;4989544;28;20057;-67
2023/03/04 01:55:45;;;;;;;13.30;1.65;;;;;;;;;;4990230;28;20042;-67
2023/03/04 01:58:13;;;;;;;21.67;2.17;;;;;;;;;;4969133;28;20081;-67
2023/03/04 02:00:40;;;;;;;18.50;2.38;;;;;;;;;;4995157;28;20057;-67
2023/03/04 02:03:11;;;;;;;23.27;3.08;;;;;;;;;;4990082;28;20077;-67
2023/03/04 02:05:39;;;;;;;19.40;1.65;;;;;;;;;;4976762;28;20050;-67
2023/03/04 02:08:07;;;;;;;12.73;2.22;;;;;;;;;;4988953;28;20081;-67
2023/03/04 02:10:35;;;;;;;23.00;2.65;;;;;;;;;;4974440;28;20506;-67
2023/03/04 02:13:02;;;;;;;16.88;1.55;;;;;;;;;;4990500;28;20089;-67
2023/03/04 02:15:30;;;;;;;11.43;1.83;;;;;;;;;;4991627;28;20051;-67
2023/03/04 02:17:57;;;;;;;18.55;3.38;;;;;;;;;;4990503;28;20042;-67
2023/03/04 02:20:40;;;;;;;21.40;1.70;;;;;;;;;;4994148;28;20050;-67
2023/03/04 02:23:09;;;;;;;21.67;2.08;;;;;;;;;;4991587;28;20108;-67
2023/03/04 02:25:40;;;;;;;11.02;1.73;;;;;;;;;;4999589;28;20056;-67
2023/03/04 02:28:08;;;;;;;16.92;1.67;;;;;;;;;;4990943;28;20061;-67
2023/03/04 02:30:36;;;;;;;18.70;1.95;;;;;;;;;;5004528;28;20406;-67
2023/03/04 02:33:03;;;;;;;17.80;1.80;;;;;;;;;;4989304;28;21120;-67
2023/03/04 02:35:30;;;;;;;13.50;1.52;;;;;;;;;;4996999;28;20058;-67
2023/03/04 02:37:58;;;;;;;15.60;1.55;;;;;;;;;;4988201;28;20133;-67
2023/03/04 02:40:27;;;;;;;12.75;2.08;;;;;;;;;;4996290;28;20049;-67
2023/03/04 02:42:55;;;;;;;10.90;1.55;;;;;;;;;;4989207;28;20050;-67
2023/03/04 02:45:35;;;;;;;14.70;1.33;;;;;;;;;;4989932;28;20050;-67
2023/03/04 02:48:03;;;;;;;16.40;1.83;;;;;;;;;;4996491;28;20523;-67
2023/03/04 02:50:32;;;;;;;11.13;1.83;;;;;;;;;;4996246;28;20062;-67
2023/03/04 02:52:59;;;;;;;11.85;1.25;;;;;;;;;;4990029;28;20053;-67
2023/03/04 02:55:27;;;;;;;15.73;1.95;;;;;;;;;;4971759;28;20104;-67
2023/03/04 02:57:54;;;;;;;17.63;1.83;;;;;;;;;;4991126;28;20061;-67
2023/03/04 03:00:21;;;;;;;9.60;1.40;;;;;;;;;;4994594;28;20490;-67
2023/03/04 03:02:50;;;;;;;12.68;1.48;;;;;;;;;;4991770;28;20493;-67
2023/03/04 03:05:18;;;;;;;9.35;1.30;;;;;;;;;;4994938;28;20054;-67
2023/03/04 03:07:45;;;;;;;11.57;1.65;;;;;;;;;;4993168;28;20470;-67
2023/03/04 03:10:13;;;;;;;19.08;2.40;;;;;;;;;;4994416;28;20061;-67
2023/03/04 03:12:40;;;;;;;12.90;1.88;;;;;;;;;;4995172;28;20891;-67
2023/03/04 03:15:08;;;;;;;8.88;1.27;;;;;;;;;;4988614;28;20050;-67
2023/03/04 03:17:35;;;;;;;16.75;1.85;;;;;;;;;;4999681;28;20045;-67
2023/03/04 03:20:04;;;;;;;14.02;1.77;;;;;;;;;;4995757;28;20054;-67
2023/03/04 03:22:31;;;;;;;10.63;0.85;;;;;;;;;;5000883;28;20065;-67
2023/03/04 03:24:58;;;;;;;12.18;1.15;;;;;;;;;;4993740;28;20084;-67
2023/03/04 03:27:26;;;;;;;12.75;1.55;;;;;;;;;;5003520;28;20053;-67
2023/03/04 03:29:53;;;;;;;12.05;1.40;;;;;;;;;;4998866;28;20066;-67
2023/03/04 03:32:20;;;;;;;16.55;1.10;;;;;;;;;;4992582;28;20288;-67
2023/03/04 03:34:47;;;;;;;8.40;0.93;;;;;;;;;;4992365;28;20045;-67
2023/03/04 03:37:16;;;;;;;12.27;1.27;;;;;;;;;;4982243;28;20057;-67
2023/03/04 03:39:43;;;;;;;10.35;1.15;;;;;;;;;;4992304;28;20059;-67
2023/03/04 03:42:11;;;;;;;14.63;1.48;;;;;;;;;;4993387;28;20111;-67
2023/03/04 03:44:38;;;;;;;11.60;1.40;;;;;;;;;;4996086;28;20081;-68
2023/03/04 03:47:05;;;;;;;9.10;0.98;;;;;;;;;;4987721;28;20058;-67
2023/03/04 03:49:32;;;;;;;11.68;1.08;;;;;;;;;;4965672;28;20058;-67
2023/03/04 03:52:00;;;;;;;11.48;1.38;;;;;;;;;;4983227;28;20057;-67
2023/03/04 03:54:28;;;;;;;11.55;1.17;;;;;;;;;;4990989;28;20061;-67
2023/03/04 03:56:56;;;;;;;7.78;0.73;;;;;;;;;;4990358;28;20181;-67
2023/03/04 03:59:23;;;;;;;4.18;0.75;;;;;;;;;;4996493;28;20148;-67
2023/03/04 04:01:51;;;;;;;6.90;0.90;;;;;;;;;;4999127;28;20058;-67
2023/03/04 04:04:18;;;;;;;14.27;1.10;;;;;;;;;;4990672;28;20486;-68
2023/03/04 04:06:45;;;;;;;12.88;1.60;;;;;;;;;;4995831;28;20413;-67
2023/03/04 04:09:12;;;;;;;9.23;1.00;;;;;;;;;;4990783;28;20402;-67
2023/03/04 04:11:41;;;;;;;9.63;1.15;;;;;;;;;;4989753;28;20474;-67
2023/03/04 04:14:09;;;;;;;12.43;1.02;;;;;;;;;;4996951;28;20080;-67
2023/03/04 04:16:37;;;;;;;10.20;1.08;;;;;;;;;;4975724;28;20050;-67
2023/03/04 04:19:04;;;;;;;9.73;0.93;;;;;;;;;;4999522;28;20050;-67
2023/03/04 04:21:31;;;;;;;7.10;1.02;;;;;;;;;;5000365;28;20083;-67
2023/03/04 04:23:58;;;;;;;18.55;1.17;;;;;;;;;;4998271;28;20499;-67
2023/03/04 04:26:26;;;;;;;7.57;1.05;;;;;;;;;;4973412;28;20061;-67
2023/03/04 04:28:54;;;;;;;12.38;1.73;;;;;;;;;;4998300;28;20071;-67
2023/03/04 04:31:21;;;;;;;9.20;1.00;;;;;;;;;;4983139;28;20065;-67
2023/03/04 04:33:49;;;;;;;17.27;1.95;;;;;;;;;;4994812;28;20520;-67
2023/03/04 04:36:16;;;;;;;7.05;1.02;;;;;;;;;;4980576;28;20045;-67
2023/03/04 04:38:44;;;;;;;8.00;0.82;;;;;;;;;;4989443;28;20082;-67
2023/03/04 04:41:19;;;;;;;9.48;0.95;;;;;;;;;;4996390;28;20062;-67
2023/03/04 04:43:46;;;;;;;10.90;1.67;;;;;;;;;;4991732;28;20054;-67
2023/03/04 04:46:15;;;;;;;7.25;1.80;;;;;;;;;;4995141;28;20349;-67
2023/03/04 04:48:42;;;;;;;8.55;1.20;;;;;;;;;;4979089;28;20042;-67
2023/03/04 04:51:09;;;;;;;21.15;1.48;;;;;;;;;;5004736;28;20046;-67
2023/03/04 04:53:37;;;;;;;17.90;1.50;;;;;;;;;;4999292;28;20532;-67
2023/03/04 04:56:09;;;;;;;10.13;1.23;;;;;;;;;;4993671;28;20061;-67
2023/03/04 04:58:36;;;;;;;12.52;1.30;;;;;;;;;;4992723;28;20100;-68
2023/03/04 05:01:04;;;;;;;7.10;0.88;;;;;;;;;;5000171;28;20046;-67
2023/03/04 05:03:33;;;;;;;9.70;1.10;;;;;;;;;;5000922;28;20500;-68
2023/03/04 05:06:00;;;;;;;15.85;1.05;;;;;;;;;;5000389;28;20046;-68
2023/03/04 05:08:28;;;;;;;11.07;1.73;;;;;;;;;;5002886;28;20057;-67
2023/03/04 05:10:55;;;;;;;14.57;0.95;;;;;;;;;;4992862;28;20050;-67
2023/03/04 05:13:22;;;;;;;14.73;1.33;;;;;;;;;;4993450;28;20092;-67
2023/03/04 05:15:51;;;;;;;12.13;1.23;;;;;;;;;;4992418;28;20409;-67
2023/03/04 05:18:18;;;;;;;12.48;1.83;;;;;;;;;;4976101;28;20050;-68
2023/03/04 05:20:50;;;;;;;14.48;1.50;;;;;;;;;;4990876;28;20046;-68
2023/03/04 05:23:17;;;;;;;11.25;1.10;;;;;;;;;;4994225;28;20064;-68
2023/03/04 05:25:44;;;;;;;13.80;1.55;;;;;;;;;;4993885;28;20461;-68
2023/03/04 05:28:12;;;;;;;14.82;1.55;;;;;;;;;;5000728;28;20061;-68
2023/03/04 05:30:39;;;;;;;13.20;1.60;;;;;;;;;;5000085;28;20054;-68
2023/03/04 05:33:07;;;;;;;15.82;2.03;;;;;;;;;;4995021;28;20062;-68
2023/03/04 05:35:35;;;;;;;13.35;1.27;;;;;;;;;;4995464;28;20354;-68
2023/03/04 05:38:04;;;;;;;15.52;1.50;;;;;;;;;;4975382;28;20116;-69
2023/03/04 05:40:31;;;;;;;14.98;1.55;;;;;;;;;;4989945;28;20062;-68
2023/03/04 05:42:58;;;;;;;17.25;1.65;;;;;;;;;;4993738;28;20533;-68
2023/03/04 05:45:26;;;;;;;23.05;1.60;;;;;;;;;;4981795;28;20490;-69
2023/03/04 05:47:54;;;;;;;18.80;1.80;;;;;;;;;;4987931;28;20046;-69
2023/03/04 05:50:22;;;;;;;19.92;1.60;;;;;;;;;;4994710;28;20046;-69
2023/03/04 05:52:49;;;;;;;18.02;2.00;;;;;;;;;;4988251;28;20042;-69
2023/03/04 05:55:18;;;;;;;16.20;1.85;;;;;;;;;;4991660;28;20054;-69
2023/03/04 05:57:45;;;;;;;14.50;2.30;;;;;;;;;;4993859;28;20100;-69
2023/03/04 06:00:14;;;;;;;17.38;1.42;;;;;;;;;;4993639;28;20047;-68
2023/03/04 06:02:42;;;;;;;17.88;1.40;;;;;;;;;;4996856;28;20046;-68
2023/03/04 06:05:10;;;;;;;16.23;1.38;;;;;;;;;;4991955;28;20461;-68
2023/03/04 06:07:37;;;;;;;16.05;2.17;;;;;;;;;;4990159;28;20046;-68
2023/03/04 06:10:05;;;;;;;14.80;1.08;;;;;;;;;;4995616;28;20042;-69
2023/03/04 06:12:33;;;;;;;15.35;1.52;;;;;;;;;;4996123;28;20081;-69
2023/03/04 06:15:01;;;;;;;15.75;1.52;;;;;;;;;;4991795;28;20042;-69
2023/03/04 06:17:28;;;;;;;10.07;1.48;;;;;;;;;;4994892;28;20042;-69
2023/03/04 06:19:56;;;;;;;16.80;3.20;;;;;;;;;;5001251;28;20409;-70
2023/03/04 06:22:23;;;;;;;15.55;1.75;;;;;;;;;;4998878;28;20046;-70
2023/03/04 06:24:51;;;;;;;11.35;1.30;;;;;;;;;;4977567;28;20054;-70
2023/03/04 06:27:18;;;;;;;13.23;1.70;;;;;;;;;;4992441;28;20046;-70
2023/03/04 06:29:46;;;;;;;5.13;0.73;;;;;;;;;;4992437;28;20497;-70
2023/03/04 06:32:14;;;;;;;10.15;1.40;;;;;;;;;;4989723;28;20085;-69
2023/03/04 06:34:41;;;;;;;9.18;1.67;;;;;;;;;;4994518;28;20046;-69
2023/03/04 06:37:09;;;;;;;14.05;1.00;;;;;;;;;;4990575;28;20065;-70
2023/03/04 06:39:36;;;;;;;12.45;1.30;;;;;;;;;;4991329;28;20056;-70
2023/03/04 06:42:03;;;;;;;11.65;1.15;;;;;;;;;;4991020;28;20078;-69
2023/03/04 06:44:31;;;;;;;12.07;1.30;;;;;;;;;;4995008;28;20053;-70
2023/03/04 06:46:59;;;;;;;17.73;1.50;;;;;;;;;;4994853;28;20386;-69
2023/03/04 06:49:26;;;;;;;16.45;1.85;;;;;;;;;;4996576;28;20062;-70
2023/03/04 06:51:54;;;;;;;14.88;1.67;;;;;;;;;;4991853;28;20042;-70
2023/03/04 06:54:21;;;;;;;24.00;2.00;;;;;;;;;;4983019;28;20085;-69
2023/03/04 06:56:48;;;;;;;15.27;2.15;;;;;;;;;;4995324;28;20043;-69
2023/03/04 06:59:16;;;;;;;13.98;1.50;;;;;;;;;;5000883;28;20050;-69
2023/03/04 07:01:43;;;;;;;12.75;1.90;;;;;;;;;;4997354;28;20421;-69
2023/03/04 07:04:13;;;;;;;16.58;1.83;;;;;;;;;;4993527;28;20066;-69
2023/03/04 07:06:40;;;;;;;38.28;3.33;;;;;;;;;;5004802;28;20650;-70
2023/03/04 07:09:08;;;;;;;21.15;2.72;;;;;;;;;;4998652;28;20127;-69
2023/03/04 07:11:35;;;;;;;19.02;2.28;;;;;;;;;;4999284;28;20425;-69
2023/03/04 07:14:02;;;;;;;10.10;1.00;;;;;;;;;;4993257;28;20065;-69
2023/03/04 07:16:29;;;;;;;11.75;1.13;;;;;;;;;;4993423;28;20077;-70
2023/03/04 07:18:57;;;;;;;9.48;0.85;;;;;;;;;;4996791;28;20053;-70
2023/03/04 07:21:26;;;;;;;5.28;0.90;;;;;;;;;;4987885;28;20057;-69
2023/03/04 07:23:53;;;;;;;11.88;1.10;;;;;;;;;;4982926;28;20506;-70
2023/03/04 07:26:20;;;;;;;17.17;1.95;;;;;;;;;;4995877;28;20065;-69
2023/03/04 07:28:48;;;;;;;21.08;1.45;;;;;;;;;;4988570;28;20047;-69
2023/03/04 07:31:20;;;;;;;18.90;1.65;;;;;;;;;;4998381;28;20050;-69
2023/03/04 07:33:47;;;;;;;19.25;1.50;;;;;;;;;;5003892;28;20058;-69
2023/03/04 07:36:15;;;;;;;13.73;1.63;;;;;;;;;;4971146;28;20057;-70
2023/03/04 07:38:45;;;;;;;15.55;2.17;;;;;;;;;;5002813;28;20065;-70
2023/03/04 07:41:12;;;;;;;15.50;2.25;;;;;;;;;;4989992;28;20378;-69
2023/03/04 07:43:39;;;;;;;10.93;1.38;;;;;;;;;;4983761;28;20156;-69
2023/03/04 07:46:07;;;;;;;21.75;2.75;;;;;;;;;;4992650;28;20409;-69
2023/03/04 07:48:34;;;;;;;18.65;1.95;;;;;;;;;;4995131;28;20047;-69
2023/03/04 07:51:06;;;;;;;24.38;2.30;;;;;;;;;;4976863;28;20047;-69
2023/03/04 07:53:33;;;;;;;21.63;1.50;;;;;;;;;;4982390;28;20598;-69
2023/03/04 07:56:01;;;;;;;13.52;1.70;;;;;;;;;;4992866;28;20383;-69
2023/03/04 07:58:29;;;;;;;17.85;1.83;;;;;;;;;;4976988;28;20050;-69
2023/03/04 08:00:56;;;;;;;15.20;1.90;;;;;;;;;;4999118;28;20049;-69
2023/03/04 08:03:23;;;;;;;6.53;1.10;;;;;;;;;;5002501;28;20054;-70
2023/03/04 08:05:51;;;;;;;5.07;0.68;;;;;;;;;;4997916;28;20129;-69
2023/03/04 08:08:18;;;;;;;7.32;0.90;;;;;;;;;;4980080;28;20045;-69
2023/03/04 08:10:46;;;;;;;12.75;1.48;;;;;;;;;;4998669;28;20508;-69
2023/03/04 08:13:14;;;;;;;5.53;0.77;;;;;;;;;;5000812;28;20049;-69
2023/03/04 08:15:42;;;;;;;7.10;0.75;;;;;;;;;;5002939;28;20054;-69
2023/03/04 08:18:10;;;;;;;5.70;0.70;;;;;;;;;;4999393;28;20050;-69
2023/03/04 08:20:37;;;;;;;5.63;0.73;;;;;;;;;;5005047;28;20124;-69
2023/03/04 08:23:04;;;;;;;14.25;1.10;;;;;;;;;;4997488;28;20054;-70
2023/03/04 08:25:31;;;;;;;13.68;1.50;;;;;;;;;;4990587;28;20050;-69
2023/03/04 08:27:59;;;;;;;15.00;1.95;;;;;;;;;;4996178;28;20385;-68
2023/03/04 08:30:28;;;;;;;16.38;1.92;;;;;;;;;;5003740;28;20053;-69
2023/03/04 08:32:55;;;;;;;21.70;3.45;;;;;;;;;;4999891;28;20050;-68
2023/03/04 08:35:23;;;;;;;27.17;3.80;;;;;;;;;;4999368;28;20042;-68
2023/03/04 08:37:50;;;;;;;32.10;3.53;;;;;;;;;;5001557;28;20148;-68
2023/03/04 08:40:17;;;;;;;22.48;3.92;;;;;;;;;;4991288;28;20142;-68
2023/03/04 08:42:45;;;;;;;26.05;4.07;;;;;;;;;;4993572;28;20054;-69
2023/03/04 08:45:12;;;;;;;22.70;3.22;;;;;;;;;;4996263;28;20136;-68
2023/03/04 08:47:41;;;;;;;31.35;3.28;;;;;;;;;;4982152;28;20417;-68
2023/03/04 08:50:08;;;;;;;32.58;4.07;;;;;;;;;;4979714;28;20046;-68
2023/03/04 08:52:36;;;;;;;33.08;5.85;;;;;;;;;;4995264;28;20050;-68
2023/03/04 08:55:03;;;;;;;30.08;5.60;;;;;;;;;;4991769;28;20053;-68
2023/03/04 08:57:31;;;;;;;22.08;5.32;;;;;;;;;;4979607;28;20128;-69
2023/03/04 08:59:58;;;;;;;47.03;13.93;;;;;;;;;;4997672;28;20104;-68
2023/03/04 09:02:25;;;;;;;44.45;12.35;;;;;;;;;;4999447;28;20050;-68
2023/03/04 09:04:54;;;;;;;47.03;13.90;;;;;;;;;;4979565;28;20054;-68
2023/03/04 09:07:21;;;;;;;55.95;18.77;;;;;;;;;;4994067;28;20523;-68
2023/03/04 09:09:48;;;;;;;40.55;13.93;;;;;;;;;;5005066;28;20515;-68
2023/03/04 09:12:15;;;;;;;26.27;4.47;;;;;;;;;;5002526;28;20477;-68
2023/03/04 09:14:43;;;;;;;26.38;5.45;;;;;;;;;;4998207;28;20050;-68
2023/03/04 09:17:10;;;;;;;23.92;4.10;;;;;;;;;;4995087;28;20072;-68
2023/03/04 09:19:37;;;;;;;25.15;3.38;;;;;;;;;;4997162;28;20537;-68
2023/03/04 09:22:06;;;;;;;25.25;4.53;;;;;;;;;;4994520;28;20137;-68
2023/03/04 09:24:33;;;;;;;24.98;3.83;;;;;;;;;;4992697;28;20502;-68
2023/03/04 09:27:00;;;;;;;26.40;3.58;;;;;;;;;;4993133;28;20069;-68
2023/03/04 09:29:28;;;;;;;18.33;2.60;;;;;;;;;;4992583;28;20054;-68
2023/03/04 09:31:55;;;;;;;15.23;2.50;;;;;;;;;;4993120;28;20552;-68
2023/03/04 09:34:22;;;;;;;26.08;3.67;;;;;;;;;;4998545;28;20481;-67
2023/03/04 09:36:50;;;;;;;19.35;3.53;;;;;;;;;;4980603;28;20555;-68
2023/03/04 09:39:18;;;;;;;25.58;3.65;;;;;;;;;;4995241;28;20466;-67
2023/03/04 09:41:47;;;;;;;28.08;9.43;;;;;;;;;;4973141;28;20050;-68
2023/03/04 09:44:16;;;;;;;28.90;8.07;;;;;;;;;;4975548;28;20427;-67
2023/03/04 09:46:45;;;;;;;55.13;19.92;;;;;;;;;;4991236;28;20489;-68
2023/03/04 09:49:12;;;;;;;29.98;3.47;;;;;;;;;;4989545;28;20496;-68
2023/03/04 09:51:44;;;;;;;17.33;3.40;;;;;;;;;;4994354;28;20094;-68
2023/03/04 09:54:15;;;;;;;30.15;7.60;;;;;;;;;;4995502;28;20049;-67
2023/03/04 09:56:44;;;;;;;18.63;4.70;;;;;;;;;;4995044;28;20054;-68
2023/03/04 09:59:15;;;;;;;14.52;2.60;;;;;;;;;;4992535;28;20038;-67
2023/03/04 10:01:46;;;;;;;20.25;4.00;;;;;;;;;;4995541;28;20395;-68
2023/03/04 10:04:14;;;;;;;26.02;8.23;;;;;;;;;;4997941;28;20053;-68
2023/03/04 10:06:42;;;;;;;56.15;17.23;;;;;;;;;;4995157;28;20049;-67
2023/03/04 10:09:12;;;;;;;20.70;5.47;;;;;;;;;;4990604;28;20470;-67
2023/03/04 10:11:41;;;;;;;23.45;8.77;;;;;;;;;;4994875;28;20406;-67
2023/03/04 10:14:27;;;;;;;35.30;11.93;;;;;;;;;;4975007;28;20058;-68
2023/03/04 10:16:58;;;;;;;45.42;18.40;;;;;;;;;;4991817;28;20046;-67
2023/03/04 10:19:31;;;;;;;32.80;10.73;;;;;;;;;;4990997;28;20062;-67
2023/03/04 10:21:58;;;;;;;48.83;18.08;;;;;;;;;;4993545;28;20065;-67
2023/03/04 10:24:28;;;;;;;79.88;29.33;;;;;;;;;;4991683;28;20061;-68
2023/03/04 10:26:56;;;;;;;24.15;9.32;;;;;;;;;;4993145;28;20042;-67
2023/03/04 10:29:24;;;;;;;19.90;5.18;;;;;;;;;;4976533;28;20043;-67
2023/03/04 10:31:54;;;;;;;12.48;3.50;;;;;;;;;;4996966;28;20050;-67
2023/03/04 10:34:23;;;;;;;15.30;1.92;;;;;;;;;;4995112;28;20127;-68
2023/03/04 10:36:55;;;;;;;12.75;3.63;;;;;;;;;;4992831;28;20054;-67
2023/03/04 10:39:25;;;;;;;8.45;1.88;;;;;;;;;;4991595;28;20141;-67
2023/03/04 10:41:56;;;;;;;12.35;2.67;;;;;;;;;;4991260;28;20073;-67
2023/03/04 10:44:24;;;;;;;14.25;2.47;;;;;;;;;;4996008;28;20049;-67
2023/03/04 10:46:54;;;;;;;14.18;1.65;;;;;;;;;;4994548;28;20054;-67
2023/03/04 10:49:24;;;;;;;13.52;1.80;;;;;;;;;;5000204;28;20092;-67
2023/03/04 10:51:54;;;;;;;8.05;1.35;;;;;;;;;;4999881;28;20065;-68
2023/03/04 10:54:24;;;;;;;10.90;1.77;;;;;;;;;;4998707;28;20073;-68
2023/03/04 10:57:00;;;;;;;10.68;1.65;;;;;;;;;;4976878;28;20050;-68
2023/03/04 10:59:41;;;;;;;13.50;1.80;;;;;;;;;;5000120;28;20060;-68
2023/03/04 11:02:16;;;;;;;14.77;1.65;;;;;;;;;;4995081;28;20512;-67
2023/03/04 11:04:51;;;;;;;10.52;1.48;;;;;;;;;;4989902;28;20054;-67
2023/03/04 11:07:19;;;;;;;22.10;1.98;;;;;;;;;;4993505;28;20114;-67
2023/03/04 11:09:46;;;;;;;20.38;1.98;;;;;;;;;;4976377;28;20046;-67
2023/03/04 11:12:14;;;;;;;20.33;2.58;;;;;;;;;;4994380;28;20049;-67
2023/03/04 11:14:44;;;;;;;26.67;2.50;;;;;;;;;;4987716;28;20053;-67
2023/03/04 11:17:20;;;;;;;18.23;2.58;;;;;;;;;;4999126;28;20070;-67
2023/03/04 11:19:51;;;;;;;20.73;2.35;;;;;;;;;;4996485;28;20051;-67
2023/03/04 11:22:19;;;;;;;17.95;2.78;;;;;;;;;;4998575;28;20141;-67
2023/03/04 11:24:53;;;;;;;15.18;2.20;;;;;;;;;;4995648;28;20057;-68
2023/03/04 11:27:21;;;;;;;13.52;2.10;;;;;;;;;;4990066;28;20057;-67
2023/03/04 11:29:52;;;;;;;15.40;2.17;;;;;;;;;;4981333;28;20092;-67
2023/03/04 11:32:21;;;;;;;16.13;2.75;;;;;;;;;;4988628;28;20062;-67
2023/03/04 11:34:52;;;;;;;18.88;3.05;;;;;;;;;;4989887;28;20152;-67
2023/03/04 11:37:22;;;;;;;24.77;4.03;;;;;;;;;;4987919;28;20417;-67
2023/03/04 11:39:51;;;;;;;15.95;2.72;;;;;;;;;;4988134;28;20057;-67
2023/03/04 11:42:24;;;;;;;16.40;2.55;;;;;;;;;;4993971;28;20389;-67
2023/03/04 11:44:52;;;;;;;13.52;2.65;;;;;;;;;;4994918;28;20051;-67
2023/03/04 11:47:26;;;;;;;20.67;3.22;;;;;;;;;;4992431;28;20053;-67
2023/03/04 11:50:05;;;;;;;15.13;2.83;;;;;;;;;;4992091;28;21476;-67
2023/03/04 11:52:40;;;;;;;21.52;2.30;;;;;;;;;;4993660;28;20057;-67
2023/03/04 11:55:19;;;;;;;15.70;2.08;;;;;;;;;;4992682;28;20054;-67
2023/03/04 11:57:51;;;;;;;16.15;2.17;;;;;;;;;;4988845;28;20043;-67
2023/03/04 12:00:28;;;;;;;26.02;2.70;;;;;;;;;;4970812;28;20058;-66
2023/03/04 12:03:05;;;;;;;15.82;2.13;;;;;;;;;;4991655;28;20047;-67
2023/03/04 12:05:38;;;;;;;17.75;2.60;;;;;;;;;;4992176;28;20050;-66
2023/03/04 12:08:22;;;;;;;23.42;3.22;;;;;;;;;;4988553;28;20072;-66
2023/03/04 12:10:53;;;;;;;22.88;3.03;;;;;;;;;;4976371;28;20062;-66
2023/03/04 12:13:38;;;;;;;20.70;2.90;;;;;;;;;;4989820;28;20050;-66
2023/03/04 12:16:11;;;;;;;21.88;3.20;;;;;;;;;;4990513;28;20070;-66
2023/03/04 12:18:46;;;;;;;21.83;2.65;;;;;;;;;;4975321;28;20046;-66
2023/03/04 12:21:20;;;;;;;22.88;2.83;;;;;;;;;;4991709;28;20387;-66
2023/03/04 12:24:09;;;;;;;20.20;2.50;;;;;;;;;;4996459;28;20277;-66
2023/03/04 12:26:39;;;;;;;14.82;2.70;;;;;;;;;;4976803;28;20621;-66
2023/03/04 12:29:09;;;;;;;14.15;2.58;;;;;;;;;;4993272;28;20050;-67
2023/03/04 12:31:41;;;;;;;19.42;2.00;;;;;;;;;;4995906;28;20058;-66
2023/03/04 12:34:29;;;;;;;11.93;2.40;;;;;;;;;;4994508;28;20050;-66
2023/03/04 12:37:06;;;;;;;15.35;2.65;;;;;;;;;;4993587;28;20054;-66
2023/03/04 12:39:34;;;;;;;20.15;2.83;;;;;;;;;;4996295;28;20486;-67
2023/03/04 12:42:07;;;;;;;15.95;2.80;;;;;;;;;;4993698;28;20089;-67
2023/03/04 12:44:38;;;;;;;20.60;2.97;;;;;;;;;;4999399;28;20057;-67
2023/03/04 12:47:12;;;;;;;25.25;3.10;;;;;;;;;;4993231;28;20100;-67
2023/03/04 12:49:46;;;;;;;18.48;2.63;;;;;;;;;;5000618;28;20085;-66
2023/03/04 12:52:19;;;;;;;15.98;2.28;;;;;;;;;;4996244;28;20049;-67
2023/03/04 12:54:47;;;;;;;12.68;2.13;;;;;;;;;;4993026;28;20054;-66
2023/03/04 12:57:15;;;;;;;9.27;1.73;;;;;;;;;;5001421;28;20049;-66
2023/03/04 12:59:45;;;;;;;16.10;2.40;;;;;;;;;;4993562;28;20520;-65
2023/03/04 13:02:27;;;;;;;24.73;3.42;;;;;;;;;;4994436;28;20493;-65
2023/03/04 13:04:58;;;;;;;17.50;2.70;;;;;;;;;;4992822;28;20047;-65
2023/03/04 13:07:32;;;;;;;14.93;2.60;;;;;;;;;;4994258;28;20078;-66
2023/03/04 13:10:05;;;;;;;20.02;2.90;;;;;;;;;;4990779;28;20050;-66
2023/03/04 13:12:46;;;;;;;19.58;2.67;;;;;;;;;;4998243;28;20046;-66
2023/03/04 13:15:28;;;;;;;17.77;2.60;;;;;;;;;;5000215;28;20053;-65
2023/03/04 13:17:57;;;;;;;21.00;2.88;;;;;;;;;;5005058;28;20046;-66
2023/03/04 13:20:25;;;;;;;15.50;2.40;;;;;;;;;;4988836;28;20433;-66
2023/03/04 13:22:56;;;;;;;12.90;1.95;;;;;;;;;;4988989;28;20401;-66
2023/03/04 13:25:41;;;;;;;11.23;1.70;;;;;;;;;;4988865;28;20042;-65
2023/03/04 13:28:24;;;;;;;11.40;2.30;;;;;;;;;;4996068;28;20469;-66
2023/03/04 13:30:52;;;;;;;;;;;;;;;;;;4995098;28;20520;-65
2023/03/04 13:33:34;;;;;;;17.25;1.90;;;;;;;;;;4989423;28;20432;-65
2023/03/04 13:36:05;;;;;;;10.75;1.83;;;;;;;;;;4988340;28;20064;-65
2023/03/04 13:38:36;;;;;;;14.40;2.60;;;;;;;;;;4990394;28;20058;-65
2023/03/04 13:41:12;;;;;;;19.75;2.53;;;;;;;;;;4996506;28;20050;-66
2023/03/04 13:43:41;;;;;;;12.30;1.95;;;;;;;;;;4995302;28;20124;-66
2023/03/04 13:46:27;;;;;;;14.80;1.95;;;;;;;;;;4996256;28;20050;-65
2023/03/04 13:49:01;;;;;;;19.80;2.83;;;;;;;;;;4991314;28;20073;-66
2023/03/04 13:51:30;;;;;;;12.23;2.08;;;;;;;;;;4989008;28;20422;-65
2023/03/04 13:54:07;;;;;;;16.98;2.85;;;;;;;;;;4993666;28;20055;-65
2023/03/04 13:56:35;;;;;;;15.27;1.83;;;;;;;;;;4993553;28;20591;-66
2023/03/04 13:59:17;;;;;;;17.95;2.97;;;;;;;;;;4991397;28;20042;-65
2023/03/04 14:01:59;;;;;;;13.68;2.55;;;;;;;;;;4993995;28;20751;-65
2023/03/04 14:04:32;;;;;;;17.92;2.13;;;;;;;;;;4993552;28;20050;-66
2023/03/04 14:07:00;;;;;;;12.13;2.42;;;;;;;;;;4991525;28;20084;-65
2023/03/04 14:09:29;;;;;;;12.50;1.85;;;;;;;;;;4989662;28;20047;-65
2023/03/04 14:11:58;;;;;;;17.40;1.90;;;;;;;;;;4991517;28;20046;-65
2023/03/04 14:14:27;;;;;;;13.32;1.58;;;;;;;;;;4996250;28;20050;-65
2023/03/04 14:16:56;;;;;;;11.30;1.80;;;;;;;;;;4997213;28;20404;-65
2023/03/04 14:19:26;;;;;;;15.60;1.90;;;;;;;;;;4998740;28;20056;-65
2023/03/04 14:21:53;;;;;;;13.38;2.25;;;;;;;;;;5002746;28;20089;-65
2023/03/04 14:24:21;;;;;;;11.05;2.15;;;;;;;;;;4987563;28;20073;-66
2023/03/04 14:26:50;;;;;;;13.45;2.15;;;;;;;;;;4992076;28;20145;-65
2023/03/04 14:29:21;;;;;;;18.95;2.30;;;;;;;;;;4992597;28;20054;-65
2023/03/04 14:31:49;;;;;;;24.80;2.83;;;;;;;;;;4998410;28;20056;-66
2023/03/04 14:34:20;;;;;;;19.38;2.20;;;;;;;;;;4996917;28;20065;-65
2023/03/04 14:36:47;;;;;;;19.80;2.78;;;;;;;;;;4996067;28;20050;-66
2023/03/04 14:39:17;;;;;;;16.67;2.20;;;;;;;;;;4993946;28;20129;-65
2023/03/04 14:41:45;;;;;;;21.52;3.10;;;;;;;;;;4988720;28;20054;-67
2023/03/04 14:44:18;;;;;;;18.05;2.75;;;;;;;;;;4991738;28;20050;-65